sensor_id;sensor_type;location;lat;lon;timestamp;P1;durP1;ratioP1;P2;durP2;ratioP2
72575;SDS011;60613;48.658;2.328;2023-04-25T06:02:37;3.28;;;1.23;;
72575;SDS011;60613;48.658;2.328;2023-04-25T06:05:03;4.00;;;1.30;;
72575;SDS011;60613;48.658;2.328;2023-04-25T06:07:29;3.35;;;1.35;;
72575;SDS011;60613;48.658;2.328;2023-04-25T06:09:55;4.23;;;1.50;;
72575;SDS011;60613;48.658;2.328;2023-04-25T06:12:21;3.40;;;1.40;;
72575;SDS011;60613;48.658;2.328;2023-04-25T06:14:47;3.78;;;1.30;;
72575;SDS011;60613;48.658;2.328;2023-04-25T06:17:13;4.03;;;1.43;;
72575;SDS011;60613;48.658;2.328;2023-04-25T06:19:38;4.95;;;1.45;;
72575;SDS011;60613;48.658;2.328;2023-04-25T06:22:04;3.77;;;1.40;;
72575;SDS011;60613;48.658;2.328;2023-04-25T06:24:29;3.22;;;1.30;;
72575;SDS011;60613;48.658;2.328;2023-04-25T06:26:55;3.83;;;1.40;;
72575;SDS011;60613;48.658;2.328;2023-04-25T06:29:21;4.38;;;1.40;;
72575;SDS011;60613;48.658;2.328;2023-04-25T06:31:46;4.27;;;1.60;;
72575;SDS011;60613;48.658;2.328;2023-04-25T06:34:12;4.83;;;1.47;;
72575;SDS011;60613;48.658;2.328;2023-04-25T06:36:38;4.50;;;1.40;;
72575;SDS011;60613;48.658;2.328;2023-04-25T06:39:03;4.57;;;1.20;;
72575;SDS011;60613;48.658;2.328;2023-04-25T06:41:29;4.20;;;1.30;;
72575;SDS011;60613;48.658;2.328;2023-04-25T06:43:55;4.00;;;1.48;;
72575;SDS011;60613;48.658;2.328;2023-04-25T06:46:20;5.60;;;1.57;;
72575;SDS011;60613;48.658;2.328;2023-04-25T06:48:46;4.50;;;1.50;;
72575;SDS011;60613;48.658;2.328;2023-04-25T06:51:12;4.90;;;1.40;;
72575;SDS011;60613;48.658;2.328;2023-04-25T06:53:38;5.15;;;1.40;;
72575;SDS011;60613;48.658;2.328;2023-04-25T06:56:04;4.50;;;1.50;;
72575;SDS011;60613;48.658;2.328;2023-04-25T06:58:30;4.83;;;1.30;;
72575;SDS011;60613;48.658;2.328;2023-04-25T07:00:55;3.42;;;1.50;;
72575;SDS011;60613;48.658;2.328;2023-04-25T07:03:21;4.43;;;1.50;;
72575;SDS011;60613;48.658;2.328;2023-04-25T07:05:47;5.50;;;1.70;;
72575;SDS011;60613;48.658;2.328;2023-04-25T07:08:12;8.50;;;1.95;;
72575;SDS011;60613;48.658;2.328;2023-04-25T07:10:38;6.67;;;1.87;;
72575;SDS011;60613;48.658;2.328;2023-04-25T07:13:05;7.55;;;1.80;;
72575;SDS011;60613;48.658;2.328;2023-04-25T07:15:30;6.27;;;1.70;;
72575;SDS011;60613;48.658;2.328;2023-04-25T07:17:56;6.60;;;1.70;;
72575;SDS011;60613;48.658;2.328;2023-04-25T07:20:21;10.17;;;3.40;;
72575;SDS011;60613;48.658;2.328;2023-04-25T07:22:47;12.55;;;3.78;;
72575;SDS011;60613;48.658;2.328;2023-04-25T07:25:13;9.17;;;3.20;;
72575;SDS011;60613;48.658;2.328;2023-04-25T07:27:38;9.27;;;3.80;;
72575;SDS011;60613;48.658;2.328;2023-04-25T07:30:04;13.23;;;4.13;;
72575;SDS011;60613;48.658;2.328;2023-04-25T07:32:31;8.57;;;3.25;;
72575;SDS011;60613;48.658;2.328;2023-04-25T07:34:56;9.50;;;3.60;;
72575;SDS011;60613;48.658;2.328;2023-04-25T07:37:22;10.47;;;3.40;;
72575;SDS011;60613;48.658;2.328;2023-04-25T07:39:48;9.77;;;3.70;;
72575;SDS011;60613;48.658;2.328;2023-04-25T07:42:13;9.55;;;4.00;;
72575;SDS011;60613;48.658;2.328;2023-04-25T07:44:39;8.80;;;3.40;;
72575;SDS011;60613;48.658;2.328;2023-04-25T07:47:06;8.45;;;3.20;;
72575;SDS011;60613;48.658;2.328;2023-04-25T07:49:34;10.23;;;3.05;;
72575;SDS011;60613;48.658;2.328;2023-04-25T07:52:02;7.32;;;2.33;;
72575;SDS011;60613;48.658;2.328;2023-04-25T07:54:28;8.50;;;2.90;;
72575;SDS011;60613;48.658;2.328;2023-04-25T07:56:54;8.03;;;2.03;;
72575;SDS011;60613;48.658;2.328;2023-04-25T07:59:20;9.63;;;2.50;;
72575;SDS011;60613;48.658;2.328;2023-04-25T08:01:47;10.32;;;2.13;;
72575;SDS011;60613;48.658;2.328;2023-04-25T08:04:13;10.50;;;2.38;;
72575;SDS011;60613;48.658;2.328;2023-04-25T08:06:38;6.87;;;1.97;;
72575;SDS011;60613;48.658;2.328;2023-04-25T08:09:05;8.15;;;2.15;;
72575;SDS011;60613;48.658;2.328;2023-04-25T08:11:31;10.38;;;2.28;;
72575;SDS011;60613;48.658;2.328;2023-04-25T08:13:57;6.87;;;2.27;;
72575;SDS011;60613;48.658;2.328;2023-04-25T08:16:23;5.80;;;2.13;;
72575;SDS011;60613;48.658;2.328;2023-04-25T08:18:49;7.90;;;2.00;;
72575;SDS011;60613;48.658;2.328;2023-04-25T08:21:15;7.07;;;2.07;;
72575;SDS011;60613;48.658;2.328;2023-04-25T08:23:41;6.10;;;1.95;;
72575;SDS011;60613;48.658;2.328;2023-04-25T08:26:06;7.20;;;1.90;;
72575;SDS011;60613;48.658;2.328;2023-04-25T08:28:32;7.20;;;2.13;;
72575;SDS011;60613;48.658;2.328;2023-04-25T08:30:58;6.00;;;1.77;;
72575;SDS011;60613;48.658;2.328;2023-04-25T08:33:24;6.10;;;1.90;;
72575;SDS011;60613;48.658;2.328;2023-04-25T08:35:49;6.80;;;1.63;;
72575;SDS011;60613;48.658;2.328;2023-04-25T08:38:16;6.17;;;1.90;;
72575;SDS011;60613;48.658;2.328;2023-04-25T08:40:43;6.97;;;1.90;;
72575;SDS011;60613;48.658;2.328;2023-04-25T08:43:08;7.20;;;1.98;;
72575;SDS011;60613;48.658;2.328;2023-04-25T08:45:41;6.43;;;2.00;;
72575;SDS011;60613;48.658;2.328;2023-04-25T08:48:09;5.72;;;1.77;;
72575;SDS011;60613;48.658;2.328;2023-04-25T08:50:38;5.73;;;1.87;;
72575;SDS011;60613;48.658;2.328;2023-04-25T08:53:08;5.78;;;1.85;;
72575;SDS011;60613;48.658;2.328;2023-04-25T08:55:38;8.13;;;1.88;;
72575;SDS011;60613;48.658;2.328;2023-04-25T08:58:07;6.80;;;2.03;;
72575;SDS011;60613;48.658;2.328;2023-04-25T09:00:35;6.72;;;2.00;;
72575;SDS011;60613;48.658;2.328;2023-04-25T09:03:01;6.10;;;1.87;;
72575;SDS011;60613;48.658;2.328;2023-04-25T09:05:27;5.95;;;1.83;;
72575;SDS011;60613;48.658;2.328;2023-04-25T09:07:54;8.27;;;2.00;;
72575;SDS011;60613;48.658;2.328;2023-04-25T09:10:21;6.55;;;2.00;;
72575;SDS011;60613;48.658;2.328;2023-04-25T09:13:01;7.20;;;2.10;;
72575;SDS011;60613;48.658;2.328;2023-04-25T09:15:49;6.03;;;2.00;;
72575;SDS011;60613;48.658;2.328;2023-04-25T09:18:26;6.55;;;2.00;;
72575;SDS011;60613;48.658;2.328;2023-04-25T09:20:56;5.97;;;1.90;;
72575;SDS011;60613;48.658;2.328;2023-04-25T09:23:30;5.63;;;1.90;;
72575;SDS011;60613;48.658;2.328;2023-04-25T09:26:03;7.37;;;2.33;;
72575;SDS011;60613;48.658;2.328;2023-04-25T09:28:31;6.30;;;1.90;;
72575;SDS011;60613;48.658;2.328;2023-04-25T09:30:57;5.63;;;1.80;;
72575;SDS011;60613;48.658;2.328;2023-04-25T09:33:32;6.93;;;2.00;;
72575;SDS011;60613;48.658;2.328;2023-04-25T09:36:04;5.85;;;2.35;;
72575;SDS011;60613;48.658;2.328;2023-04-25T09:38:32;6.50;;;2.20;;
72575;SDS011;60613;48.658;2.328;2023-04-25T09:41:06;6.13;;;2.08;;
72575;SDS011;60613;48.658;2.328;2023-04-25T09:43:32;6.70;;;2.00;;
72575;SDS011;60613;48.658;2.328;2023-04-25T09:45:58;6.57;;;2.13;;
72575;SDS011;60613;48.658;2.328;2023-04-25T09:48:25;5.30;;;1.90;;
72575;SDS011;60613;48.658;2.328;2023-04-25T09:51:08;5.43;;;2.00;;
72575;SDS011;60613;48.658;2.328;2023-04-25T09:53:40;5.57;;;1.93;;
72575;SDS011;60613;48.658;2.328;2023-04-25T09:56:07;5.75;;;1.90;;
72575;SDS011;60613;48.658;2.328;2023-04-25T09:58:35;6.93;;;2.10;;
72575;SDS011;60613;48.658;2.328;2023-04-25T10:01:02;4.63;;;1.80;;
72575;SDS011;60613;48.658;2.328;2023-04-25T10:03:31;5.18;;;2.00;;
72575;SDS011;60613;48.658;2.328;2023-04-25T10:06:01;7.10;;;2.17;;
72575;SDS011;60613;48.658;2.328;2023-04-25T10:08:31;5.80;;;2.00;;
72575;SDS011;60613;48.658;2.328;2023-04-25T10:11:02;5.50;;;2.10;;
72575;SDS011;60613;48.658;2.328;2023-04-25T10:13:29;5.22;;;1.90;;
72575;SDS011;60613;48.658;2.328;2023-04-25T10:15:59;6.47;;;2.15;;
72575;SDS011;60613;48.658;2.328;2023-04-25T10:18:26;4.70;;;1.83;;
72575;SDS011;60613;48.658;2.328;2023-04-25T10:20:56;5.55;;;2.05;;
72575;SDS011;60613;48.658;2.328;2023-04-25T10:23:27;6.20;;;1.90;;
72575;SDS011;60613;48.658;2.328;2023-04-25T10:25:54;5.45;;;1.98;;
72575;SDS011;60613;48.658;2.328;2023-04-25T10:28:20;5.32;;;1.85;;
72575;SDS011;60613;48.658;2.328;2023-04-25T10:30:59;5.30;;;2.00;;
72575;SDS011;60613;48.658;2.328;2023-04-25T10:33:30;6.07;;;2.15;;
72575;SDS011;60613;48.658;2.328;2023-04-25T10:38:43;6.18;;;1.95;;
72575;SDS011;60613;48.658;2.328;2023-04-25T10:41:10;6.97;;;2.03;;
72575;SDS011;60613;48.658;2.328;2023-04-25T10:46:13;4.97;;;1.80;;
72575;SDS011;60613;48.658;2.328;2023-04-25T10:48:50;5.18;;;1.80;;
72575;SDS011;60613;48.658;2.328;2023-04-25T10:51:20;5.68;;;1.80;;
72575;SDS011;60613;48.658;2.328;2023-04-25T10:53:56;6.18;;;2.10;;
72575;SDS011;60613;48.658;2.328;2023-04-25T10:56:32;5.23;;;1.90;;
72575;SDS011;60613;48.658;2.328;2023-04-25T10:59:12;4.55;;;1.80;;
72575;SDS011;60613;48.658;2.328;2023-04-25T11:01:40;5.65;;;1.80;;
72575;SDS011;60613;48.658;2.328;2023-04-25T11:09:47;5.03;;;2.00;;
72575;SDS011;60613;48.658;2.328;2023-04-25T11:12:13;5.78;;;2.08;;
72575;SDS011;60613;48.658;2.328;2023-04-25T11:14:39;4.80;;;1.90;;
72575;SDS011;60613;48.658;2.328;2023-04-25T11:17:05;4.87;;;1.90;;
72575;SDS011;60613;48.658;2.328;2023-04-25T11:19:31;5.27;;;1.87;;
72575;SDS011;60613;48.658;2.328;2023-04-25T11:22:00;5.50;;;2.00;;
72575;SDS011;60613;48.658;2.328;2023-04-25T11:24:30;4.47;;;1.80;;
72575;SDS011;60613;48.658;2.328;2023-04-25T11:27:00;4.80;;;1.90;;
72575;SDS011;60613;48.658;2.328;2023-04-25T11:29:31;5.38;;;1.88;;
72575;SDS011;60613;48.658;2.328;2023-04-25T11:31:57;7.20;;;2.10;;
72575;SDS011;60613;48.658;2.328;2023-04-25T11:34:24;5.00;;;1.73;;
72575;SDS011;60613;48.658;2.328;2023-04-25T11:36:50;5.32;;;2.25;;
72575;SDS011;60613;48.658;2.328;2023-04-25T11:39:19;5.83;;;1.70;;
72575;SDS011;60613;48.658;2.328;2023-04-25T11:41:46;5.85;;;1.90;;
72575;SDS011;60613;48.658;2.328;2023-04-25T11:44:12;5.50;;;1.75;;
72575;SDS011;60613;48.658;2.328;2023-04-25T11:46:41;5.10;;;1.92;;
72575;SDS011;60613;48.658;2.328;2023-04-25T11:49:07;4.97;;;1.90;;
72575;SDS011;60613;48.658;2.328;2023-04-25T11:51:43;4.83;;;1.93;;
72575;SDS011;60613;48.658;2.328;2023-04-25T11:54:10;5.38;;;1.90;;
72575;SDS011;60613;48.658;2.328;2023-04-25T11:56:37;9.55;;;2.33;;
72575;SDS011;60613;48.658;2.328;2023-04-25T11:59:06;5.85;;;2.00;;
72575;SDS011;60613;48.658;2.328;2023-04-25T12:01:32;6.27;;;2.33;;
72575;SDS011;60613;48.658;2.328;2023-04-25T12:04:12;6.60;;;2.42;;
72575;SDS011;60613;48.658;2.328;2023-04-25T12:06:41;6.60;;;2.00;;
72575;SDS011;60613;48.658;2.328;2023-04-25T12:09:09;7.00;;;1.92;;
72575;SDS011;60613;48.658;2.328;2023-04-25T12:11:46;5.72;;;2.08;;
72575;SDS011;60613;48.658;2.328;2023-04-25T12:14:20;6.73;;;2.30;;
72575;SDS011;60613;48.658;2.328;2023-04-25T12:16:49;5.63;;;2.10;;
72575;SDS011;60613;48.658;2.328;2023-04-25T12:19:16;6.15;;;2.10;;
72575;SDS011;60613;48.658;2.328;2023-04-25T12:21:44;6.28;;;2.10;;
72575;SDS011;60613;48.658;2.328;2023-04-25T12:24:17;9.48;;;2.40;;
72575;SDS011;60613;48.658;2.328;2023-04-25T12:29:21;6.25;;;2.00;;
72575;SDS011;60613;48.658;2.328;2023-04-25T12:31:48;6.43;;;2.20;;
72575;SDS011;60613;48.658;2.328;2023-04-25T12:34:14;6.93;;;2.10;;
72575;SDS011;60613;48.658;2.328;2023-04-25T12:36:39;7.07;;;2.30;;
72575;SDS011;60613;48.658;2.328;2023-04-25T12:39:05;7.53;;;2.20;;
72575;SDS011;60613;48.658;2.328;2023-04-25T12:41:31;7.35;;;2.17;;
72575;SDS011;60613;48.658;2.328;2023-04-25T12:43:57;7.00;;;2.20;;
72575;SDS011;60613;48.658;2.328;2023-04-25T12:46:23;6.80;;;2.20;;
72575;SDS011;60613;48.658;2.328;2023-04-25T12:48:49;6.10;;;2.20;;
72575;SDS011;60613;48.658;2.328;2023-04-25T12:51:15;5.67;;;2.23;;
72575;SDS011;60613;48.658;2.328;2023-04-25T12:53:40;5.97;;;2.15;;
72575;SDS011;60613;48.658;2.328;2023-04-25T12:56:06;5.57;;;1.80;;
72575;SDS011;60613;48.658;2.328;2023-04-25T12:58:32;7.60;;;2.10;;
72575;SDS011;60613;48.658;2.328;2023-04-25T13:00:58;7.07;;;2.10;;
72575;SDS011;60613;48.658;2.328;2023-04-25T13:03:24;7.40;;;2.22;;
72575;SDS011;60613;48.658;2.328;2023-04-25T13:05:50;6.43;;;2.10;;
72575;SDS011;60613;48.658;2.328;2023-04-25T13:08:17;6.80;;;2.10;;
72575;SDS011;60613;48.658;2.328;2023-04-25T13:10:43;5.43;;;1.95;;
72575;SDS011;60613;48.658;2.328;2023-04-25T13:13:09;6.50;;;2.10;;
72575;SDS011;60613;48.658;2.328;2023-04-25T13:15:35;5.87;;;1.90;;
72575;SDS011;60613;48.658;2.328;2023-04-25T13:18:01;5.55;;;2.00;;
72575;SDS011;60613;48.658;2.328;2023-04-25T13:20:28;5.43;;;1.95;;
72575;SDS011;60613;48.658;2.328;2023-04-25T13:22:54;5.70;;;2.00;;
72575;SDS011;60613;48.658;2.328;2023-04-25T13:25:20;4.97;;;1.90;;
72575;SDS011;60613;48.658;2.328;2023-04-25T13:27:46;6.03;;;1.92;;
72575;SDS011;60613;48.658;2.328;2023-04-25T13:30:12;6.13;;;2.00;;
72575;SDS011;60613;48.658;2.328;2023-04-25T13:32:38;6.10;;;2.28;;
72575;SDS011;60613;48.658;2.328;2023-04-25T13:35:05;5.20;;;2.00;;
72575;SDS011;60613;48.658;2.328;2023-04-25T13:37:35;7.38;;;2.25;;
72575;SDS011;60613;48.658;2.328;2023-04-25T13:40:02;7.70;;;2.10;;
72575;SDS011;60613;48.658;2.328;2023-04-25T13:42:31;5.43;;;2.08;;
72575;SDS011;60613;48.658;2.328;2023-04-25T13:44:57;6.23;;;1.90;;
72575;SDS011;60613;48.658;2.328;2023-04-25T13:47:23;5.57;;;2.00;;
72575;SDS011;60613;48.658;2.328;2023-04-25T13:49:51;6.75;;;1.85;;
72575;SDS011;60613;48.658;2.328;2023-04-25T13:52:17;5.47;;;1.98;;
72575;SDS011;60613;48.658;2.328;2023-04-25T13:54:43;4.93;;;1.93;;
72575;SDS011;60613;48.658;2.328;2023-04-25T13:57:08;5.95;;;1.85;;
72575;SDS011;60613;48.658;2.328;2023-04-25T13:59:36;6.20;;;1.87;;
72575;SDS011;60613;48.658;2.328;2023-04-25T14:02:01;8.13;;;2.00;;
72575;SDS011;60613;48.658;2.328;2023-04-25T14:04:27;6.00;;;2.20;;
72575;SDS011;60613;48.658;2.328;2023-04-25T14:06:53;5.90;;;2.10;;
72575;SDS011;60613;48.658;2.328;2023-04-25T14:09:19;6.45;;;2.30;;
72575;SDS011;60613;48.658;2.328;2023-04-25T14:11:47;5.18;;;2.10;;
72575;SDS011;60613;48.658;2.328;2023-04-25T14:14:12;6.10;;;2.03;;
72575;SDS011;60613;48.658;2.328;2023-04-25T14:16:41;6.68;;;2.28;;
72575;SDS011;60613;48.658;2.328;2023-04-25T14:19:06;6.10;;;2.27;;
72575;SDS011;60613;48.658;2.328;2023-04-25T14:21:32;6.78;;;1.95;;
72575;SDS011;60613;48.658;2.328;2023-04-25T14:23:58;7.37;;;2.07;;
72575;SDS011;60613;48.658;2.328;2023-04-25T14:26:23;6.28;;;2.10;;
72575;SDS011;60613;48.658;2.328;2023-04-25T14:28:50;6.63;;;1.97;;
72575;SDS011;60613;48.658;2.328;2023-04-25T14:31:16;6.68;;;2.03;;
72575;SDS011;60613;48.658;2.328;2023-04-25T14:33:42;6.07;;;2.03;;
72575;SDS011;60613;48.658;2.328;2023-04-25T14:36:08;6.50;;;2.20;;
72575;SDS011;60613;48.658;2.328;2023-04-25T14:38:34;6.68;;;2.15;;
72575;SDS011;60613;48.658;2.328;2023-04-25T14:40:59;5.38;;;1.90;;
72575;SDS011;60613;48.658;2.328;2023-04-25T14:43:26;7.33;;;2.17;;
72575;SDS011;60613;48.658;2.328;2023-04-25T14:45:51;6.28;;;1.95;;
72575;SDS011;60613;48.658;2.328;2023-04-25T14:48:17;4.70;;;1.70;;
72575;SDS011;60613;48.658;2.328;2023-04-25T14:50:44;6.30;;;1.98;;
72575;SDS011;60613;48.658;2.328;2023-04-25T14:53:12;5.82;;;1.90;;
72575;SDS011;60613;48.658;2.328;2023-04-25T14:55:38;6.17;;;2.10;;
72575;SDS011;60613;48.658;2.328;2023-04-25T14:58:05;6.05;;;2.05;;
72575;SDS011;60613;48.658;2.328;2023-04-25T15:00:32;5.00;;;1.88;;
72575;SDS011;60613;48.658;2.328;2023-04-25T15:02:58;5.70;;;1.95;;
72575;SDS011;60613;48.658;2.328;2023-04-25T15:05:24;6.40;;;1.80;;
72575;SDS011;60613;48.658;2.328;2023-04-25T15:07:49;6.57;;;2.10;;
72575;SDS011;60613;48.658;2.328;2023-04-25T15:10:16;8.35;;;2.05;;
72575;SDS011;60613;48.658;2.328;2023-04-25T15:12:42;6.10;;;2.00;;
72575;SDS011;60613;48.658;2.328;2023-04-25T15:15:09;6.25;;;2.03;;
72575;SDS011;60613;48.658;2.328;2023-04-25T15:17:38;5.72;;;1.73;;
72575;SDS011;60613;48.658;2.328;2023-04-25T15:20:06;6.35;;;1.95;;
72575;SDS011;60613;48.658;2.328;2023-04-25T15:22:32;4.37;;;1.70;;
72575;SDS011;60613;48.658;2.328;2023-04-25T15:24:58;6.00;;;1.80;;
72575;SDS011;60613;48.658;2.328;2023-04-25T15:27:24;6.18;;;1.80;;
72575;SDS011;60613;48.658;2.328;2023-04-25T15:29:51;7.50;;;1.83;;
72575;SDS011;60613;48.658;2.328;2023-04-25T15:32:18;5.50;;;1.65;;
72575;SDS011;60613;48.658;2.328;2023-04-25T15:34:43;4.97;;;1.90;;
72575;SDS011;60613;48.658;2.328;2023-04-25T15:37:09;6.13;;;1.80;;
72575;SDS011;60613;48.658;2.328;2023-04-25T15:39:34;5.68;;;1.75;;
72575;SDS011;60613;48.658;2.328;2023-04-25T15:42:00;5.83;;;1.90;;
72575;SDS011;60613;48.658;2.328;2023-04-25T15:44:26;5.75;;;1.80;;
72575;SDS011;60613;48.658;2.328;2023-04-25T15:46:52;5.33;;;1.70;;
72575;SDS011;60613;48.658;2.328;2023-04-25T15:49:17;6.30;;;1.73;;
72575;SDS011;60613;48.658;2.328;2023-04-25T15:51:45;6.47;;;2.13;;
72575;SDS011;60613;48.658;2.328;2023-04-25T15:54:12;4.85;;;1.70;;
72575;SDS011;60613;48.658;2.328;2023-04-25T15:56:38;5.78;;;2.00;;
72575;SDS011;60613;48.658;2.328;2023-04-25T15:59:03;5.13;;;1.90;;
72575;SDS011;60613;48.658;2.328;2023-04-25T16:01:29;5.93;;;1.95;;
72575;SDS011;60613;48.658;2.328;2023-04-25T16:03:55;6.10;;;2.05;;
72575;SDS011;60613;48.658;2.328;2023-04-25T16:06:25;6.23;;;1.83;;
72575;SDS011;60613;48.658;2.328;2023-04-25T16:08:51;5.50;;;1.90;;
72575;SDS011;60613;48.658;2.328;2023-04-25T16:11:17;6.60;;;2.10;;
72575;SDS011;60613;48.658;2.328;2023-04-25T16:13:43;5.85;;;1.90;;
72575;SDS011;60613;48.658;2.328;2023-04-25T16:16:09;5.72;;;2.10;;
72575;SDS011;60613;48.658;2.328;2023-04-25T16:18:35;6.63;;;2.13;;
72575;SDS011;60613;48.658;2.328;2023-04-25T16:21:01;6.40;;;2.10;;
72575;SDS011;60613;48.658;2.328;2023-04-25T16:23:27;5.93;;;2.13;;
72575;SDS011;60613;48.658;2.328;2023-04-25T16:25:53;5.15;;;1.80;;
72575;SDS011;60613;48.658;2.328;2023-04-25T16:28:19;6.80;;;2.00;;
72575;SDS011;60613;48.658;2.328;2023-04-25T16:30:44;6.70;;;2.10;;
72575;SDS011;60613;48.658;2.328;2023-04-25T16:33:10;4.72;;;1.85;;
72575;SDS011;60613;48.658;2.328;2023-04-25T16:35:36;4.43;;;1.73;;
72575;SDS011;60613;48.658;2.328;2023-04-25T16:38:02;5.40;;;1.90;;
72575;SDS011;60613;48.658;2.328;2023-04-25T16:40:27;5.50;;;1.90;;
72575;SDS011;60613;48.658;2.328;2023-04-25T16:42:53;5.00;;;1.90;;
72575;SDS011;60613;48.658;2.328;2023-04-25T16:45:19;5.80;;;1.80;;
72575;SDS011;60613;48.658;2.328;2023-04-25T16:47:45;6.43;;;2.00;;
72575;SDS011;60613;48.658;2.328;2023-04-25T16:50:14;4.63;;;1.70;;
72575;SDS011;60613;48.658;2.328;2023-04-25T16:52:40;5.40;;;1.90;;
72575;SDS011;60613;48.658;2.328;2023-04-25T16:55:06;5.82;;;2.05;;
72575;SDS011;60613;48.658;2.328;2023-04-25T16:57:33;7.13;;;2.40;;
72575;SDS011;60613;48.658;2.328;2023-04-25T17:00:00;5.75;;;2.35;;
72575;SDS011;60613;48.658;2.328;2023-04-25T17:02:26;6.17;;;2.03;;
72575;SDS011;60613;48.658;2.328;2023-04-25T17:04:51;5.90;;;2.10;;
72575;SDS011;60613;48.658;2.328;2023-04-25T17:07:17;4.87;;;1.90;;
72575;SDS011;60613;48.658;2.328;2023-04-25T17:09:48;5.18;;;2.00;;
72575;SDS011;60613;48.658;2.328;2023-04-25T17:12:14;5.78;;;1.73;;
72575;SDS011;60613;48.658;2.328;2023-04-25T17:14:40;5.35;;;1.85;;
72575;SDS011;60613;48.658;2.328;2023-04-25T17:17:07;5.13;;;1.80;;
72575;SDS011;60613;48.658;2.328;2023-04-25T17:19:32;6.53;;;1.93;;
72575;SDS011;60613;48.658;2.328;2023-04-25T17:21:58;5.82;;;1.95;;
72575;SDS011;60613;48.658;2.328;2023-04-25T17:24:24;5.53;;;1.90;;
72575;SDS011;60613;48.658;2.328;2023-04-25T17:26:50;5.95;;;2.10;;
72575;SDS011;60613;48.658;2.328;2023-04-25T17:29:15;6.33;;;2.10;;
72575;SDS011;60613;48.658;2.328;2023-04-25T17:31:41;5.80;;;2.17;;
72575;SDS011;60613;48.658;2.328;2023-04-25T17:34:08;6.20;;;2.00;;
72575;SDS011;60613;48.658;2.328;2023-04-25T17:36:33;5.17;;;2.03;;
72575;SDS011;60613;48.658;2.328;2023-04-25T17:38:59;6.28;;;1.90;;
72575;SDS011;60613;48.658;2.328;2023-04-25T17:41:25;5.47;;;2.20;;
72575;SDS011;60613;48.658;2.328;2023-04-25T17:43:50;6.30;;;2.00;;
72575;SDS011;60613;48.658;2.328;2023-04-25T17:46:16;6.10;;;2.20;;
72575;SDS011;60613;48.658;2.328;2023-04-25T17:48:42;6.32;;;2.08;;
72575;SDS011;60613;48.658;2.328;2023-04-25T17:51:08;5.90;;;2.00;;
72575;SDS011;60613;48.658;2.328;2023-04-25T17:53:34;5.95;;;2.30;;
72575;SDS011;60613;48.658;2.328;2023-04-25T17:56:00;7.15;;;2.08;;
72575;SDS011;60613;48.658;2.328;2023-04-25T17:58:26;5.60;;;2.13;;
72575;SDS011;60613;48.658;2.328;2023-04-25T18:00:52;5.35;;;1.92;;
72575;SDS011;60613;48.658;2.328;2023-04-25T18:03:17;5.47;;;1.83;;
72575;SDS011;60613;48.658;2.328;2023-04-25T18:05:43;6.13;;;2.03;;
72575;SDS011;60613;48.658;2.328;2023-04-25T18:08:08;5.60;;;2.00;;
72575;SDS011;60613;48.658;2.328;2023-04-25T18:10:34;5.78;;;2.17;;
72575;SDS011;60613;48.658;2.328;2023-04-25T18:13:00;6.28;;;1.90;;
72575;SDS011;60613;48.658;2.328;2023-04-25T18:15:26;5.40;;;1.90;;
72575;SDS011;60613;48.658;2.328;2023-04-25T18:17:52;6.50;;;2.03;;
72575;SDS011;60613;48.658;2.328;2023-04-25T18:20:18;6.37;;;2.03;;
72575;SDS011;60613;48.658;2.328;2023-04-25T18:22:44;6.20;;;2.33;;
72575;SDS011;60613;48.658;2.328;2023-04-25T18:25:10;4.88;;;1.75;;
72575;SDS011;60613;48.658;2.328;2023-04-25T18:27:37;6.72;;;1.98;;
72575;SDS011;60613;48.658;2.328;2023-04-25T18:30:04;5.07;;;2.00;;
72575;SDS011;60613;48.658;2.328;2023-04-25T18:32:31;6.65;;;1.90;;
72575;SDS011;60613;48.658;2.328;2023-04-25T18:34:57;6.47;;;2.25;;
72575;SDS011;60613;48.658;2.328;2023-04-25T18:37:23;6.57;;;2.50;;
72575;SDS011;60613;48.658;2.328;2023-04-25T18:39:48;7.85;;;2.33;;
72575;SDS011;60613;48.658;2.328;2023-04-25T18:42:14;7.90;;;2.40;;
72575;SDS011;60613;48.658;2.328;2023-04-25T18:44:40;6.47;;;2.20;;
72575;SDS011;60613;48.658;2.328;2023-04-25T18:47:07;6.35;;;2.20;;
72575;SDS011;60613;48.658;2.328;2023-04-25T18:49:34;6.57;;;2.40;;
72575;SDS011;60613;48.658;2.328;2023-04-25T18:52:01;6.90;;;2.30;;
72575;SDS011;60613;48.658;2.328;2023-04-25T18:54:27;6.10;;;2.40;;
72575;SDS011;60613;48.658;2.328;2023-04-25T18:56:53;7.07;;;2.60;;
72575;SDS011;60613;48.658;2.328;2023-04-25T18:59:21;8.23;;;2.78;;
72575;SDS011;60613;48.658;2.328;2023-04-25T19:01:47;8.83;;;3.00;;
72575;SDS011;60613;48.658;2.328;2023-04-25T19:04:13;8.93;;;2.90;;
72575;SDS011;60613;48.658;2.328;2023-04-25T19:06:39;8.75;;;2.80;;
72575;SDS011;60613;48.658;2.328;2023-04-25T19:09:05;9.23;;;3.13;;
72575;SDS011;60613;48.658;2.328;2023-04-25T19:11:32;10.35;;;3.63;;
72575;SDS011;60613;48.658;2.328;2023-04-25T19:13:58;9.20;;;3.42;;
72575;SDS011;60613;48.658;2.328;2023-04-25T19:16:25;8.95;;;3.15;;
72575;SDS011;60613;48.658;2.328;2023-04-25T19:18:52;8.07;;;2.80;;
72575;SDS011;60613;48.658;2.328;2023-04-25T19:21:19;6.47;;;2.80;;
72575;SDS011;60613;48.658;2.328;2023-04-25T19:23:45;8.52;;;3.05;;
72575;SDS011;60613;48.658;2.328;2023-04-25T19:26:10;7.32;;;2.70;;
72575;SDS011;60613;48.658;2.328;2023-04-25T19:28:36;8.20;;;2.90;;
72575;SDS011;60613;48.658;2.328;2023-04-25T19:31:02;8.05;;;2.85;;
72575;SDS011;60613;48.658;2.328;2023-04-25T19:33:29;6.30;;;2.50;;
72575;SDS011;60613;48.658;2.328;2023-04-25T19:35:55;6.40;;;2.60;;
72575;SDS011;60613;48.658;2.328;2023-04-25T19:38:20;6.50;;;2.80;;
72575;SDS011;60613;48.658;2.328;2023-04-25T19:40:46;8.18;;;2.97;;
72575;SDS011;60613;48.658;2.328;2023-04-25T19:43:12;7.27;;;2.73;;
72575;SDS011;60613;48.658;2.328;2023-04-25T19:45:38;8.10;;;2.90;;
72575;SDS011;60613;48.658;2.328;2023-04-25T19:48:04;8.13;;;2.90;;
72575;SDS011;60613;48.658;2.328;2023-04-25T19:50:30;8.38;;;2.83;;
72575;SDS011;60613;48.658;2.328;2023-04-25T19:52:56;7.47;;;2.90;;
72575;SDS011;60613;48.658;2.328;2023-04-25T19:55:22;7.18;;;2.90;;
72575;SDS011;60613;48.658;2.328;2023-04-25T19:57:48;6.83;;;2.80;;
72575;SDS011;60613;48.658;2.328;2023-04-25T20:00:14;7.72;;;3.20;;
72575;SDS011;60613;48.658;2.328;2023-04-25T20:02:42;7.40;;;3.00;;
72575;SDS011;60613;48.658;2.328;2023-04-25T20:05:12;8.13;;;3.03;;
72575;SDS011;60613;48.658;2.328;2023-04-25T20:07:40;7.77;;;3.00;;
72575;SDS011;60613;48.658;2.328;2023-04-25T20:10:06;6.40;;;2.75;;
72575;SDS011;60613;48.658;2.328;2023-04-25T20:12:35;8.10;;;3.25;;
72575;SDS011;60613;48.658;2.328;2023-04-25T20:15:02;8.05;;;3.25;;
72575;SDS011;60613;48.658;2.328;2023-04-25T20:17:28;7.37;;;3.10;;
72575;SDS011;60613;48.658;2.328;2023-04-25T20:19:53;7.18;;;3.20;;
72575;SDS011;60613;48.658;2.328;2023-04-25T20:22:20;7.13;;;3.13;;
72575;SDS011;60613;48.658;2.328;2023-04-25T20:24:45;7.27;;;3.13;;
72575;SDS011;60613;48.658;2.328;2023-04-25T20:27:11;7.80;;;3.30;;
72575;SDS011;60613;48.658;2.328;2023-04-25T20:29:36;8.32;;;3.28;;
72575;SDS011;60613;48.658;2.328;2023-04-25T20:32:02;7.53;;;3.10;;
72575;SDS011;60613;48.658;2.328;2023-04-25T20:34:28;8.27;;;3.20;;
72575;SDS011;60613;48.658;2.328;2023-04-25T20:36:55;7.90;;;3.20;;
72575;SDS011;60613;48.658;2.328;2023-04-25T20:39:21;6.37;;;2.87;;
72575;SDS011;60613;48.658;2.328;2023-04-25T20:41:47;7.63;;;3.33;;
72575;SDS011;60613;48.658;2.328;2023-04-25T20:44:13;7.70;;;3.13;;
72575;SDS011;60613;48.658;2.328;2023-04-25T20:46:39;6.57;;;3.20;;
72575;SDS011;60613;48.658;2.328;2023-04-25T20:49:05;7.13;;;3.10;;
72575;SDS011;60613;48.658;2.328;2023-04-25T20:51:31;6.80;;;3.10;;
72575;SDS011;60613;48.658;2.328;2023-04-25T20:53:57;7.70;;;3.33;;
72575;SDS011;60613;48.658;2.328;2023-04-25T20:56:24;7.32;;;3.53;;
72575;SDS011;60613;48.658;2.328;2023-04-25T20:58:50;7.00;;;3.28;;
72575;SDS011;60613;48.658;2.328;2023-04-25T21:01:20;7.20;;;3.40;;